Flight Track Log - Related Links

Times and Time Zones

All times are in EDT time to prevent confusion due to time zone crossing. See the N990JB flight status page for this flight to view local times or setup timezone preferences in your user account.

Time Position Orientation Groundspeed Altitude Reporting Facility
EDT Latitude Longitude Course Direction KTS MPH feet Rate Location/Type
Thu 07:01:13 AM 42.1789 -83.6008 218° Southwest 135 155 2,600  Level Cleveland Center
Thu 07:02:14 AM 42.1508 -83.6361 223° Southwest 133 153 3,500 934 Climbing Cleveland Center
Thu 07:03:15 AM 42.1228 -83.6683 220° Southwest 140 161 4,500 764 Climbing Cleveland Center
Thu 07:04:04 AM 42.0928 -83.6978 216° Southwest 150 173 4,900 259 Climbing Cleveland Center
Thu 07:05:11 AM 42.0461 -83.7233 202° Southwest 197 227 5,000  Climbing Cleveland Center
Thu 07:06:12 AM 42.0081 -83.6711 134° Southeast 203 234 4,900 -98 Descending Cleveland Center
Thu 07:08:00 AM 41.9418 -83.6052 144° Southeast  Level Estimated
Thu 07:15:00 AM 41.6837 -83.3502 144° Southeast  Level Estimated
Thu 07:16:00 AM 41.6468 -83.3140 144° Southeast  Level Estimated
Thu 07:17:00 AM 41.6099 -83.2778 144° Southeast  Level Estimated
Thu 07:18:00 AM 41.5730 -83.2416 144° Southeast  Level Estimated
Thu 07:19:00 AM 41.5360 -83.2055 144° Southeast  Level Estimated
Thu 07:20:00 AM 41.4991 -83.1694 144° Southeast  Level Estimated
Thu 07:21:00 AM 41.4621 -83.1333 144° Southeast  Level Estimated
Thu 07:22:00 AM 41.4251 -83.0973 144° Southeast  Level Estimated
Thu 07:23:00 AM 41.3881 -83.0613 144° Southeast  Level Estimated
Thu 07:24:00 AM 41.3511 -83.0254 144° Southeast  Level Estimated
Thu 07:25:00 AM 41.3141 -82.9895 144° Southeast  Level Estimated
Thu 07:26:00 AM 41.2771 -82.9537 144° Southeast  Level Estimated
Thu 07:27:00 AM 41.2401 -82.9179 144° Southeast  Level Estimated
Thu 07:28:00 AM 41.2030 -82.8821 144° Southeast  Level Estimated
Thu 07:29:00 AM 41.1660 -82.8464 144° Southeast  Level Estimated
Thu 07:30:00 AM 41.1289 -82.8107 144° Southeast  Level Estimated
Thu 07:31:00 AM 41.0918 -82.7751 144° Southeast  Level Estimated
Thu 07:32:00 AM 41.0547 -82.7395 144° Southeast  Level Estimated
Thu 07:33:00 AM 41.0176 -82.7039 144° Southeast  Level Estimated
Thu 07:34:00 AM 40.9805 -82.6684 144° Southeast  Level Estimated
Thu 07:35:00 AM 40.9434 -82.6329 144° Southeast  Level Estimated
Thu 07:36:00 AM 40.9063 -82.5975 144° Southeast  Level Estimated
Thu 07:37:00 AM 40.8691 -82.5620 144° Southeast  Level Estimated
Thu 07:38:00 AM 40.8320 -82.5267 144° Southeast  Level Estimated
Thu 07:39:00 AM 40.8214 -82.5166 144° Southeast  Level Estimated
Thu 07:40:00 AM 40.8214 -82.5166 166° South  Level Estimated
Thu 07:41:00 AM 40.8214 -82.5166 166° South  Level Estimated

Login

Don't have an account? Register now (free) for customized features, flight alerts, and more!